createdAt,value
2017-02-28T00:00:00.899Z,981.68
2017-02-28T00:01:02.130Z,981.68
2017-02-28T00:02:03.366Z,981.7
2017-02-28T00:03:04.602Z,981.76
2017-02-28T00:04:05.842Z,982.01
2017-02-28T00:05:07.085Z,981.98
2017-02-28T00:06:08.336Z,981.99
2017-02-28T00:07:09.567Z,981.97
2017-02-28T00:08:10.888Z,981.95
2017-02-28T00:09:12.129Z,981.89
2017-02-28T00:10:13.368Z,981.84
2017-02-28T00:11:14.599Z,981.86
2017-02-28T00:12:15.836Z,981.8
2017-02-28T00:13:17.073Z,981.91
2017-02-28T00:14:18.408Z,981.95
2017-02-28T00:15:19.635Z,981.99
2017-02-28T00:16:20.878Z,981.89
2017-02-28T00:17:22.121Z,981.91
2017-02-28T00:18:23.371Z,981.83
2017-02-28T00:19:24.621Z,981.86
2017-02-28T00:20:25.981Z,981.84
2017-02-28T00:21:27.109Z,981.83
2017-02-28T00:22:28.424Z,981.82
2017-02-28T00:23:29.699Z,981.74
2017-02-28T00:24:30.916Z,981.71
2017-02-28T00:25:32.273Z,981.77
2017-02-28T00:26:33.541Z,981.85
2017-02-28T00:27:34.764Z,981.87
2017-02-28T00:28:36.052Z,981.8
2017-02-28T00:29:37.299Z,981.8
2017-02-28T00:30:38.519Z,981.71
2017-02-28T00:31:39.763Z,981.74
2017-02-28T00:32:40.999Z,981.72
2017-02-28T00:33:42.249Z,981.69
2017-02-28T00:34:43.490Z,981.76
2017-02-28T00:35:44.726Z,981.73
2017-02-28T00:36:45.973Z,981.74
2017-02-28T00:37:47.236Z,981.71
2017-02-28T00:38:48.456Z,981.59
2017-02-28T00:39:49.693Z,981.6
2017-02-28T00:40:50.948Z,981.59
2017-02-28T00:41:52.215Z,981.42
2017-02-28T00:42:53.440Z,981.4
2017-02-28T00:43:54.683Z,981.47
2017-02-28T00:44:55.920Z,981.31
2017-02-28T00:45:57.219Z,981.32
2017-02-28T00:46:58.485Z,981.4
2017-02-28T00:47:59.720Z,981.45
2017-02-28T00:49:01.020Z,981.47
2017-02-28T00:50:02.250Z,981.52
2017-02-28T00:51:03.470Z,981.58
2017-02-28T00:52:04.780Z,981.54
2017-02-28T00:53:06.001Z,981.47
2017-02-28T00:54:07.246Z,981.5
2017-02-28T00:55:08.489Z,981.48
2017-02-28T00:56:09.754Z,981.5
2017-02-28T00:57:11.129Z,981.48
2017-02-28T00:58:12.462Z,981.56
2017-02-28T00:59:13.727Z,981.59
2017-02-28T01:00:14.980Z,981.64
2017-02-28T01:01:16.205Z,981.7
2017-02-28T01:02:17.430Z,981.6
2017-02-28T01:03:18.673Z,981.54
2017-02-28T01:04:19.901Z,981.62
2017-02-28T01:05:21.147Z,981.58
2017-02-28T01:06:22.382Z,981.57
2017-02-28T01:07:23.611Z,981.43
2017-02-28T01:08:24.838Z,981.59
2017-02-28T01:09:26.090Z,981.48
2017-02-28T01:10:27.362Z,981.53
2017-02-28T01:11:28.615Z,981.6
2017-02-28T01:12:29.872Z,981.69
2017-02-28T01:13:31.093Z,981.74
2017-02-28T01:14:32.336Z,981.81
2017-02-28T01:15:33.603Z,981.79
2017-02-28T01:16:34.819Z,981.79
2017-02-28T01:17:36.063Z,981.74
2017-02-28T01:18:37.292Z,981.64
2017-02-28T01:19:38.569Z,981.78
2017-02-28T01:20:39.782Z,981.73
2017-02-28T01:21:41.025Z,981.59
2017-02-28T01:22:42.238Z,981.52
2017-02-28T01:23:43.493Z,981.41
2017-02-28T01:24:44.776Z,981.4
2017-02-28T01:25:46.055Z,981.32
2017-02-28T01:26:47.264Z,981.35
2017-02-28T01:27:48.506Z,981.36
2017-02-28T01:28:49.788Z,981.34
2017-02-28T01:29:51.075Z,981.53
2017-02-28T01:30:52.315Z,981.58
2017-02-28T01:31:53.541Z,981.63
2017-02-28T01:32:54.788Z,981.63
2017-02-28T01:33:56.032Z,981.63
2017-02-28T01:34:57.258Z,981.67
2017-02-28T01:35:58.491Z,981.69
2017-02-28T01:36:59.756Z,981.72
2017-02-28T01:38:01.076Z,981.68
2017-02-28T01:39:02.368Z,981.68
2017-02-28T01:40:03.628Z,981.65
2017-02-28T01:41:04.864Z,981.64
2017-02-28T01:42:06.095Z,981.67
2017-02-28T01:43:07.352Z,981.64
2017-02-28T01:44:08.702Z,981.64
2017-02-28T01:45:09.932Z,981.73
2017-02-28T01:46:11.180Z,981.71
2017-02-28T01:47:12.419Z,981.67
2017-02-28T01:48:13.636Z,981.6
2017-02-28T01:49:14.927Z,981.6
2017-02-28T01:50:16.230Z,981.59
2017-02-28T01:51:17.384Z,981.59
2017-02-28T01:52:18.642Z,981.53
2017-02-28T01:53:19.910Z,981.47
2017-02-28T01:54:21.160Z,981.45
2017-02-28T01:55:22.409Z,981.5
2017-02-28T01:56:23.665Z,981.57
2017-02-28T01:57:24.992Z,981.59
2017-02-28T01:58:26.245Z,981.55
2017-02-28T01:59:27.469Z,981.5
2017-02-28T02:00:28.726Z,981.45
2017-02-28T02:01:29.945Z,981.41
2017-02-28T02:02:31.186Z,981.32
2017-02-28T02:03:32.415Z,981.3
2017-02-28T02:04:33.647Z,981.28
2017-02-28T02:05:34.926Z,981.32
2017-02-28T02:06:36.174Z,981.36
2017-02-28T02:07:37.434Z,981.44
2017-02-28T02:08:38.639Z,981.48
2017-02-28T02:09:39.870Z,981.46
2017-02-28T02:10:41.149Z,981.44
2017-02-28T02:11:42.382Z,981.43
2017-02-28T02:12:43.615Z,981.36
2017-02-28T02:13:44.851Z,981.34
2017-02-28T02:14:46.083Z,981.32
2017-02-28T02:15:47.333Z,981.3
2017-02-28T02:16:48.775Z,981.3
2017-02-28T02:17:50.028Z,981.27
2017-02-28T02:18:51.250Z,981.24
2017-02-28T02:19:52.480Z,981.28
2017-02-28T02:20:53.768Z,981.39
2017-02-28T02:21:55.018Z,981.42
2017-02-28T02:22:56.287Z,981.46
2017-02-28T02:23:57.451Z,981.5
2017-02-28T02:24:58.788Z,981.33
2017-02-28T02:26:00.056Z,981.56
2017-02-28T02:27:01.286Z,981.58
2017-02-28T02:28:02.589Z,981.64
2017-02-28T02:29:03.782Z,981.84
2017-02-28T02:30:05.051Z,981.85
2017-02-28T02:31:06.342Z,981.88
2017-02-28T02:32:07.589Z,981.81
2017-02-28T02:33:08.828Z,981.71
2017-02-28T02:34:10.068Z,981.42
2017-02-28T02:35:11.314Z,981.7
2017-02-28T02:36:12.560Z,981.87
2017-02-28T02:37:13.851Z,981.86
2017-02-28T02:38:15.086Z,981.98
2017-02-28T02:39:16.415Z,981.95
2017-02-28T02:40:17.654Z,982.02
2017-02-28T02:41:18.961Z,981.82
2017-02-28T02:42:20.210Z,981.85
2017-02-28T02:43:21.428Z,981.94
2017-02-28T02:44:22.760Z,981.87
2017-02-28T02:45:24.004Z,981.88
2017-02-28T02:46:25.302Z,981.73
2017-02-28T02:47:26.551Z,981.76
2017-02-28T02:48:27.798Z,981.78
2017-02-28T02:49:29.034Z,981.68
2017-02-28T02:50:30.376Z,981.68
2017-02-28T02:51:31.654Z,981.64
2017-02-28T02:52:32.862Z,981.63
2017-02-28T02:53:34.124Z,981.57
2017-02-28T02:54:35.333Z,981.54
2017-02-28T02:55:36.563Z,981.5
2017-02-28T02:56:37.805Z,981.45
2017-02-28T02:57:39.042Z,981.47
2017-02-28T02:58:40.377Z,981.57
2017-02-28T02:59:41.616Z,981.56
2017-02-28T03:00:42.937Z,981.62
2017-02-28T03:01:44.174Z,981.6
2017-02-28T03:02:45.430Z,981.58
2017-02-28T03:03:46.644Z,981.61
2017-02-28T03:04:47.894Z,981.58
2017-02-28T03:05:49.104Z,981.61
2017-02-28T03:06:50.341Z,981.59
2017-02-28T03:07:51.582Z,981.65
2017-02-28T03:08:52.835Z,981.67
2017-02-28T03:09:54.070Z,981.64
2017-02-28T03:10:55.296Z,981.61
2017-02-28T03:11:56.528Z,981.72
2017-02-28T03:12:57.768Z,981.63
2017-02-28T03:13:59.005Z,981.6
2017-02-28T03:15:00.256Z,981.67
2017-02-28T03:16:01.478Z,981.63
2017-02-28T03:17:02.855Z,981.59
2017-02-28T03:18:04.093Z,981.55
2017-02-28T03:19:05.343Z,981.64
2017-02-28T03:20:06.641Z,981.62
2017-02-28T03:21:07.894Z,981.7
2017-02-28T03:22:09.119Z,981.71
2017-02-28T03:23:10.375Z,981.73
2017-02-28T03:24:11.588Z,981.73
2017-02-28T03:25:12.820Z,981.78
2017-02-28T03:26:14.089Z,981.78
2017-02-28T03:27:15.315Z,981.76
2017-02-28T03:28:16.704Z,981.79
2017-02-28T03:29:17.944Z,981.78
2017-02-28T03:30:19.174Z,981.76
2017-02-28T03:31:20.422Z,981.83
2017-02-28T03:32:21.668Z,981.77
2017-02-28T03:33:22.879Z,981.78
2017-02-28T03:34:24.134Z,981.79
2017-02-28T03:35:25.345Z,981.84
2017-02-28T03:36:26.628Z,981.78
2017-02-28T03:37:27.847Z,981.88
2017-02-28T03:38:29.106Z,981.72
2017-02-28T03:39:30.326Z,981.81
2017-02-28T03:40:31.566Z,981.83
2017-02-28T03:41:32.805Z,981.68
2017-02-28T03:42:34.041Z,981.71
2017-02-28T03:43:35.269Z,981.77
2017-02-28T03:44:36.553Z,981.72
2017-02-28T03:45:37.806Z,981.75
2017-02-28T03:46:39.039Z,981.72
2017-02-28T03:47:40.330Z,981.67
2017-02-28T03:48:41.547Z,981.63
2017-02-28T03:49:42.811Z,981.68
2017-02-28T03:50:44.035Z,981.69
2017-02-28T03:51:45.252Z,981.61
2017-02-28T03:52:46.485Z,981.71
2017-02-28T03:53:47.727Z,981.59
2017-02-28T03:54:49.043Z,981.54
2017-02-28T03:55:50.282Z,981.59
2017-02-28T03:56:51.533Z,981.7
2017-02-28T03:57:52.778Z,981.61
2017-02-28T03:58:53.999Z,981.65
2017-02-28T03:59:55.317Z,981.62
2017-02-28T04:00:56.690Z,981.6
2017-02-28T04:01:57.959Z,981.63
2017-02-28T04:02:59.220Z,981.61
2017-02-28T04:04:00.463Z,981.61
2017-02-28T04:05:01.694Z,981.6
2017-02-28T04:06:02.971Z,981.67
2017-02-28T04:07:04.286Z,981.61
2017-02-28T04:08:05.431Z,981.73
2017-02-28T04:09:06.691Z,981.58
2017-02-28T04:10:07.930Z,981.68
2017-02-28T04:11:09.176Z,981.66
2017-02-28T04:12:10.439Z,981.64
2017-02-28T04:13:11.681Z,981.74
2017-02-28T04:14:13.045Z,981.67
2017-02-28T04:15:14.279Z,981.64
2017-02-28T04:16:15.505Z,981.69
2017-02-28T04:17:16.745Z,981.63
2017-02-28T04:18:17.984Z,981.51
2017-02-28T04:19:19.226Z,981.59
2017-02-28T04:20:20.504Z,981.58
2017-02-28T04:21:21.744Z,981.57
2017-02-28T04:22:22.982Z,981.65
2017-02-28T04:23:24.229Z,981.61
2017-02-28T04:24:25.478Z,981.61
2017-02-28T04:25:26.821Z,981.63
2017-02-28T04:26:28.119Z,981.63
2017-02-28T04:27:29.369Z,981.73
2017-02-28T04:28:30.606Z,981.65
2017-02-28T04:29:31.835Z,981.68
2017-02-28T04:30:33.063Z,981.67
2017-02-28T04:31:34.289Z,981.73
2017-02-28T04:32:35.614Z,981.62
2017-02-28T04:33:37.196Z,981.77
2017-02-28T04:34:38.424Z,981.74
2017-02-28T04:35:39.663Z,981.83
2017-02-28T04:36:40.986Z,981.74
2017-02-28T04:37:42.213Z,981.84
2017-02-28T04:38:43.464Z,981.76
2017-02-28T04:39:44.697Z,981.72
2017-02-28T04:40:45.936Z,981.79
2017-02-28T04:41:47.159Z,981.86
2017-02-28T04:42:48.394Z,981.83
2017-02-28T04:43:49.653Z,981.86
2017-02-28T04:44:50.919Z,981.78
2017-02-28T04:45:52.131Z,981.82
2017-02-28T04:46:53.362Z,981.86
2017-02-28T04:47:54.590Z,981.9
2017-02-28T04:48:55.822Z,981.85
2017-02-28T04:49:57.049Z,981.88
2017-02-28T04:50:58.416Z,981.91
2017-02-28T04:51:59.531Z,981.92
2017-02-28T04:53:00.870Z,981.91
2017-02-28T04:54:02.121Z,981.9
2017-02-28T04:55:03.336Z,981.94
2017-02-28T04:56:04.574Z,981.94
2017-02-28T04:57:05.811Z,981.9
2017-02-28T04:58:07.042Z,981.97
2017-02-28T04:59:08.355Z,981.96
2017-02-28T05:00:09.570Z,981.97
2017-02-28T05:01:10.809Z,981.93
2017-02-28T05:02:12.040Z,982.02
2017-02-28T05:03:13.341Z,981.93
2017-02-28T05:04:14.594Z,981.94
2017-02-28T05:05:15.829Z,981.98
2017-02-28T05:06:17.088Z,982.07
2017-02-28T05:07:18.349Z,982.05
2017-02-28T05:08:19.584Z,982.04
2017-02-28T05:09:20.814Z,981.95
2017-02-28T05:10:22.044Z,981.92
2017-02-28T05:11:23.281Z,981.91
2017-02-28T05:12:24.523Z,981.99
2017-02-28T05:13:25.763Z,981.92
2017-02-28T05:14:27.003Z,981.92
2017-02-28T05:15:28.253Z,981.91
2017-02-28T05:16:29.478Z,981.87
2017-02-28T05:17:30.696Z,981.95
2017-02-28T05:18:31.936Z,981.9
2017-02-28T05:19:33.275Z,981.95
2017-02-28T05:20:34.528Z,981.96
2017-02-28T05:21:35.776Z,981.91
2017-02-28T05:22:37.107Z,981.81
2017-02-28T05:23:38.359Z,981.84
2017-02-28T05:24:39.575Z,981.83
2017-02-28T05:25:40.966Z,981.84
2017-02-28T05:26:42.192Z,981.84
2017-02-28T05:27:43.429Z,981.89
2017-02-28T05:28:44.762Z,981.99
2017-02-28T05:29:46.011Z,982
2017-02-28T05:30:47.290Z,981.85
2017-02-28T05:31:48.522Z,982
2017-02-28T05:32:49.754Z,981.88
2017-02-28T05:33:51.005Z,981.98
2017-02-28T05:34:52.224Z,981.93
2017-02-28T05:35:53.534Z,982.05
2017-02-28T05:36:54.842Z,981.84
2017-02-28T05:37:56.088Z,981.93
2017-02-28T05:38:57.302Z,982.05
2017-02-28T05:39:58.523Z,982.02
2017-02-28T05:40:59.794Z,982.02
2017-02-28T05:42:01.009Z,982.05
2017-02-28T05:43:02.320Z,981.98
2017-02-28T05:44:03.482Z,982.03
2017-02-28T05:45:04.720Z,982.06
2017-02-28T05:46:05.947Z,982
2017-02-28T05:47:07.186Z,982.02
2017-02-28T05:48:08.417Z,982
2017-02-28T05:49:09.664Z,982.03
2017-02-28T05:50:11.033Z,982.02
2017-02-28T05:51:12.314Z,982.04
2017-02-28T05:52:13.562Z,982.06
2017-02-28T05:53:14.776Z,982.1
2017-02-28T05:54:16.038Z,981.98
2017-02-28T05:55:17.320Z,982.05
2017-02-28T05:56:18.793Z,982.09
2017-02-28T05:57:20.092Z,981.99
2017-02-28T05:58:21.307Z,982.01
2017-02-28T05:59:22.536Z,982.14
2017-02-28T06:00:23.775Z,982.1
2017-02-28T06:01:25.107Z,982.1
2017-02-28T06:02:26.358Z,982.16
2017-02-28T06:03:27.584Z,982.09
2017-02-28T06:04:28.821Z,982.07
2017-02-28T06:05:30.050Z,982.08
2017-02-28T06:06:31.322Z,982.11
2017-02-28T06:07:32.645Z,982.18
2017-02-28T06:08:33.882Z,982.02
2017-02-28T06:09:35.157Z,982.03
2017-02-28T06:10:36.416Z,982.09
2017-02-28T06:11:37.625Z,982.05
2017-02-28T06:12:38.857Z,982.11
2017-02-28T06:13:40.084Z,982.12
2017-02-28T06:14:41.332Z,982.14
2017-02-28T06:15:42.590Z,982.1
2017-02-28T06:16:43.830Z,982.25
2017-02-28T06:17:45.057Z,982.09
2017-02-28T06:18:46.313Z,982.13
2017-02-28T06:19:47.646Z,982.14
2017-02-28T06:20:48.940Z,982.2
2017-02-28T06:21:50.252Z,982.23
2017-02-28T06:22:51.500Z,982.14
2017-02-28T06:23:52.743Z,982.16
2017-02-28T06:24:53.969Z,982.21
2017-02-28T06:25:55.290Z,982.18
2017-02-28T06:26:56.578Z,982.16
2017-02-28T06:27:57.811Z,982.19
2017-02-28T06:28:59.162Z,982.18
2017-02-28T06:30:00.391Z,982.12
2017-02-28T06:31:01.630Z,982.22
2017-02-28T06:32:02.885Z,982.11
2017-02-28T06:33:04.109Z,982.25
2017-02-28T06:34:05.348Z,982.16
2017-02-28T06:35:06.612Z,982.24
2017-02-28T06:36:07.847Z,982.35
2017-02-28T06:37:09.074Z,982.35
2017-02-28T06:38:10.305Z,982.26
2017-02-28T06:39:11.535Z,982.45
2017-02-28T06:40:12.837Z,982.35
2017-02-28T06:41:14.093Z,982.35
2017-02-28T06:42:15.342Z,982.33
2017-02-28T06:43:16.642Z,982.43
2017-02-28T06:44:17.860Z,982.49
2017-02-28T06:45:19.118Z,982.49
2017-02-28T06:46:20.497Z,982.35
2017-02-28T06:47:21.742Z,982.36
2017-02-28T06:48:23.003Z,982.43
2017-02-28T06:49:24.236Z,982.34
2017-02-28T06:50:25.569Z,982.48
2017-02-28T06:51:26.815Z,982.38
2017-02-28T06:52:28.067Z,982.41
2017-02-28T06:53:29.363Z,982.42
2017-02-28T06:54:30.600Z,982.44
2017-02-28T06:55:31.829Z,982.38
2017-02-28T06:56:33.085Z,982.43
2017-02-28T06:57:34.300Z,982.45
2017-02-28T06:58:35.606Z,982.41
2017-02-28T06:59:36.846Z,982.38
2017-02-28T07:00:38.084Z,982.38
2017-02-28T07:01:39.315Z,982.39
2017-02-28T07:02:40.558Z,982.42
2017-02-28T07:03:41.783Z,982.36
2017-02-28T07:04:43.092Z,982.28
2017-02-28T07:05:44.453Z,982.32
2017-02-28T07:06:45.594Z,982.43
2017-02-28T07:07:46.880Z,982.32
2017-02-28T07:08:48.113Z,982.39
2017-02-28T07:09:49.347Z,982.39
2017-02-28T07:10:50.662Z,982.38
2017-02-28T07:11:51.879Z,982.47
2017-02-28T07:12:53.116Z,982.45
2017-02-28T07:13:54.379Z,982.43
2017-02-28T07:14:55.616Z,982.37
2017-02-28T07:15:56.864Z,982.44
2017-02-28T07:16:58.079Z,982.33
2017-02-28T07:17:59.327Z,982.39
2017-02-28T07:19:00.744Z,982.46
2017-02-28T07:20:01.999Z,982.52
2017-02-28T07:21:03.214Z,982.39
2017-02-28T07:22:04.452Z,982.36
2017-02-28T07:23:05.709Z,982.39
2017-02-28T07:24:06.954Z,982.45
2017-02-28T07:25:08.189Z,982.42
2017-02-28T07:26:09.426Z,982.44
2017-02-28T07:27:10.753Z,982.43
2017-02-28T07:28:11.968Z,982.5
2017-02-28T07:29:13.187Z,982.62
2017-02-28T07:30:14.424Z,982.55
2017-02-28T07:31:15.675Z,982.56
2017-02-28T07:32:16.943Z,982.54
2017-02-28T07:33:18.261Z,982.58
2017-02-28T07:34:19.502Z,982.46
2017-02-28T07:35:20.720Z,982.58
2017-02-28T07:36:21.950Z,982.62
2017-02-28T07:37:23.189Z,982.57
2017-02-28T07:38:24.432Z,982.55
2017-02-28T07:39:25.658Z,982.51
2017-02-28T07:40:26.899Z,982.5
2017-02-28T07:41:28.162Z,982.56
2017-02-28T07:42:29.416Z,982.49
2017-02-28T07:43:30.690Z,982.34
2017-02-28T07:44:31.903Z,982.54
2017-02-28T07:45:33.170Z,982.61
2017-02-28T07:46:34.411Z,982.4
2017-02-28T07:47:35.637Z,982.53
2017-02-28T07:48:36.878Z,982.51
2017-02-28T07:49:38.121Z,982.7
2017-02-28T07:50:39.380Z,982.53
2017-02-28T07:51:40.726Z,982.44
2017-02-28T07:52:42.019Z,982.58
2017-02-28T07:53:43.264Z,982.4
2017-02-28T07:54:44.541Z,982.58
2017-02-28T07:55:45.795Z,982.54
2017-02-28T07:56:47.078Z,982.56
2017-02-28T07:57:48.294Z,982.57
2017-02-28T07:58:49.499Z,982.54
2017-02-28T07:59:50.729Z,982.61
2017-02-28T08:00:51.951Z,982.67
2017-02-28T08:01:53.179Z,982.59
2017-02-28T08:02:54.408Z,982.68
2017-02-28T08:03:55.646Z,982.61
2017-02-28T08:04:57.038Z,982.65
2017-02-28T08:05:58.348Z,982.52
2017-02-28T08:06:59.584Z,982.62
2017-02-28T08:08:00.836Z,982.63
2017-02-28T08:09:02.082Z,982.72
2017-02-28T08:10:03.345Z,982.63
2017-02-28T08:11:04.555Z,982.67
2017-02-28T08:12:05.796Z,982.78
2017-02-28T08:13:07.017Z,982.87
2017-02-28T08:14:08.270Z,982.87
2017-02-28T08:15:09.567Z,982.82
2017-02-28T08:16:10.824Z,982.82
2017-02-28T08:17:12.055Z,982.77
2017-02-28T08:18:13.337Z,982.77
2017-02-28T08:19:14.592Z,982.83
2017-02-28T08:20:15.853Z,982.83
2017-02-28T08:21:17.062Z,982.87
2017-02-28T08:22:18.318Z,982.86
2017-02-28T08:23:19.570Z,982.87
2017-02-28T08:24:20.868Z,982.9
2017-02-28T08:25:22.164Z,982.86
2017-02-28T08:26:23.407Z,982.8
2017-02-28T08:27:24.698Z,982.82
2017-02-28T08:28:25.954Z,982.97
2017-02-28T08:29:27.393Z,982.78
2017-02-28T08:30:28.672Z,982.88
2017-02-28T08:31:29.904Z,982.8
2017-02-28T08:32:31.140Z,982.86
2017-02-28T08:33:32.365Z,982.8
2017-02-28T08:34:33.648Z,982.9
2017-02-28T08:35:34.925Z,982.75
2017-02-28T08:36:36.167Z,982.84
2017-02-28T08:37:37.388Z,982.8
2017-02-28T08:38:38.622Z,982.84
2017-02-28T08:39:39.877Z,982.93
2017-02-28T08:40:41.195Z,982.75
2017-02-28T08:41:42.506Z,982.73
2017-02-28T08:42:43.677Z,982.84
2017-02-28T08:43:44.944Z,982.8
2017-02-28T08:44:46.149Z,982.79
2017-02-28T08:45:47.393Z,982.93
2017-02-28T08:46:48.624Z,982.7
2017-02-28T08:47:49.894Z,982.83
2017-02-28T08:48:51.102Z,982.75
2017-02-28T08:49:52.374Z,982.89
2017-02-28T08:50:53.587Z,982.91
2017-02-28T08:51:54.834Z,982.91
2017-02-28T08:52:56.077Z,982.87
2017-02-28T08:53:57.309Z,982.93
2017-02-28T08:54:58.574Z,982.8
2017-02-28T08:55:59.804Z,982.75
2017-02-28T08:57:01.092Z,982.96
2017-02-28T08:58:02.340Z,982.93
2017-02-28T08:59:03.578Z,982.98
2017-02-28T09:00:04.824Z,982.9
2017-02-28T09:01:06.089Z,982.87
2017-02-28T09:02:07.338Z,982.9
2017-02-28T09:03:08.669Z,982.87
2017-02-28T09:04:09.898Z,982.95
2017-02-28T09:05:11.133Z,982.94
2017-02-28T09:06:12.374Z,982.94
2017-02-28T09:07:13.775Z,982.88
2017-02-28T09:08:15.044Z,982.92
2017-02-28T09:09:16.373Z,982.91
2017-02-28T09:10:17.604Z,982.97
2017-02-28T09:11:18.841Z,982.92
2017-02-28T09:12:20.102Z,982.96
2017-02-28T09:13:21.389Z,982.89
2017-02-28T09:14:22.845Z,982.93
2017-02-28T09:15:24.081Z,982.96
2017-02-28T09:16:25.317Z,982.98
2017-02-28T09:17:26.524Z,983
2017-02-28T09:18:27.804Z,982.97
2017-02-28T09:19:29.120Z,982.99
2017-02-28T09:20:30.358Z,982.96
2017-02-28T09:21:31.604Z,982.86
2017-02-28T09:22:32.823Z,982.79
2017-02-28T09:23:34.062Z,982.95
2017-02-28T09:24:35.300Z,982.91
2017-02-28T09:25:36.530Z,983.02
2017-02-28T09:26:37.770Z,982.96
2017-02-28T09:27:39.111Z,982.9
2017-02-28T09:28:40.366Z,983.05
2017-02-28T09:29:41.593Z,982.88
2017-02-28T09:30:42.834Z,982.92
2017-02-28T09:31:44.082Z,982.77
2017-02-28T09:32:45.311Z,982.93
2017-02-28T09:33:46.592Z,983.15
2017-02-28T09:34:47.850Z,982.99
2017-02-28T09:35:49.081Z,982.93
2017-02-28T09:36:50.311Z,983
2017-02-28T09:37:51.552Z,982.9
2017-02-28T09:38:52.838Z,982.86
2017-02-28T09:39:54.080Z,982.87
2017-02-28T09:40:55.305Z,982.76
2017-02-28T09:41:56.537Z,982.75
2017-02-28T09:42:57.783Z,982.76
2017-02-28T09:43:59.017Z,982.76
2017-02-28T09:45:00.273Z,982.84
2017-02-28T09:46:01.533Z,982.79
2017-02-28T09:47:02.767Z,982.72
2017-02-28T09:48:04.001Z,982.83
2017-02-28T09:49:05.243Z,982.8
2017-02-28T09:50:06.477Z,982.8
2017-02-28T09:51:07.717Z,982.78
2017-02-28T09:52:08.975Z,982.66
2017-02-28T09:53:10.210Z,982.79
2017-02-28T09:54:11.458Z,982.75
2017-02-28T09:55:12.707Z,983.04
2017-02-28T09:56:13.952Z,983.09
2017-02-28T09:57:15.189Z,982.97
2017-02-28T09:58:16.423Z,982.86
2017-02-28T09:59:17.667Z,982.86
2017-02-28T10:00:18.916Z,982.74
2017-02-28T10:01:20.229Z,982.71
2017-02-28T10:02:21.447Z,982.72
2017-02-28T10:03:22.722Z,982.81
2017-02-28T10:04:23.923Z,982.86
2017-02-28T10:05:25.195Z,982.73
2017-02-28T10:06:26.501Z,982.73
2017-02-28T10:07:27.747Z,982.75
2017-02-28T10:08:28.986Z,982.8
2017-02-28T10:09:30.225Z,982.77
2017-02-28T10:10:31.515Z,982.84
2017-02-28T10:11:32.854Z,982.77
2017-02-28T10:12:33.990Z,982.86
2017-02-28T10:13:35.290Z,982.75
2017-02-28T10:14:36.540Z,982.67
2017-02-28T10:15:37.781Z,982.84
2017-02-28T10:16:39.032Z,982.91
2017-02-28T10:17:40.256Z,982.89
2017-02-28T10:18:41.509Z,982.76
2017-02-28T10:19:42.748Z,982.75
2017-02-28T10:20:43.989Z,982.88
2017-02-28T10:21:45.231Z,982.75
2017-02-28T10:22:46.466Z,982.76
2017-02-28T10:23:47.749Z,982.92
2017-02-28T10:24:49.004Z,982.9
2017-02-28T10:25:50.358Z,982.89
2017-02-28T10:26:51.582Z,982.91
2017-02-28T10:27:52.880Z,982.91
2017-02-28T10:28:54.130Z,982.91
2017-02-28T10:29:55.650Z,982.92
2017-02-28T10:30:57.050Z,982.94
2017-02-28T10:31:58.360Z,982.94
2017-02-28T10:32:59.596Z,982.92
2017-02-28T10:34:00.831Z,982.94
2017-02-28T10:35:02.095Z,983.01
2017-02-28T10:36:03.309Z,982.84
2017-02-28T10:37:04.549Z,982.91
2017-02-28T10:38:05.794Z,983.01
2017-02-28T10:39:07.033Z,982.98
2017-02-28T10:40:08.271Z,983.04
2017-02-28T10:41:09.551Z,983.06
2017-02-28T10:42:10.795Z,983.07
2017-02-28T10:43:12.039Z,983
2017-02-28T10:44:13.417Z,982.99
2017-02-28T10:45:14.640Z,982.94
2017-02-28T10:46:15.892Z,982.96
2017-02-28T10:47:17.145Z,983.02
2017-02-28T10:48:18.387Z,982.83
2017-02-28T10:49:19.715Z,982.99
2017-02-28T10:50:20.952Z,982.89
2017-02-28T10:51:22.199Z,982.95
2017-02-28T10:52:23.473Z,982.93
2017-02-28T10:53:24.689Z,982.94
2017-02-28T10:54:26.034Z,983.08
2017-02-28T10:55:27.331Z,982.93
2017-02-28T10:56:28.612Z,982.97
2017-02-28T10:57:29.859Z,982.92
2017-02-28T10:58:31.132Z,982.8
2017-02-28T10:59:32.352Z,982.95
2017-02-28T11:00:33.584Z,983
2017-02-28T11:01:34.843Z,982.89
2017-02-28T11:02:36.104Z,982.86
2017-02-28T11:03:37.333Z,982.99
2017-02-28T11:04:38.602Z,983
2017-02-28T11:05:39.843Z,982.93
2017-02-28T11:06:41.078Z,982.98
2017-02-28T11:07:42.319Z,982.87
2017-02-28T11:08:43.561Z,982.88
2017-02-28T11:09:44.799Z,982.96
2017-02-28T11:10:46.063Z,982.95
2017-02-28T11:11:47.282Z,983.01
2017-02-28T11:12:48.507Z,982.96
2017-02-28T11:13:49.746Z,982.92
2017-02-28T11:14:51.144Z,982.92
2017-02-28T11:15:52.395Z,982.94
2017-02-28T11:16:53.632Z,982.93
2017-02-28T11:17:54.898Z,982.79
2017-02-28T11:18:56.127Z,982.91
2017-02-28T11:19:57.399Z,982.88
2017-02-28T11:20:58.711Z,982.76
2017-02-28T11:21:59.983Z,982.81
2017-02-28T11:23:01.200Z,982.73
2017-02-28T11:24:02.431Z,982.82
2017-02-28T11:25:03.666Z,982.72
2017-02-28T11:26:04.932Z,982.79
2017-02-28T11:27:06.158Z,982.79
2017-02-28T11:28:07.443Z,982.79
2017-02-28T11:29:08.789Z,982.78
2017-02-28T11:30:10.023Z,982.79
2017-02-28T11:31:11.291Z,982.77
2017-02-28T11:32:12.503Z,982.77
2017-02-28T11:33:13.939Z,982.7
2017-02-28T11:34:15.179Z,982.75
2017-02-28T11:35:16.506Z,982.71
2017-02-28T11:36:17.730Z,982.66
2017-02-28T11:37:19.021Z,982.69
2017-02-28T11:38:20.237Z,982.67
2017-02-28T11:39:21.475Z,982.71
2017-02-28T11:40:22.738Z,982.71
2017-02-28T11:41:23.983Z,982.72
2017-02-28T11:42:25.222Z,982.64
2017-02-28T11:43:26.475Z,982.59
2017-02-28T11:44:27.723Z,982.56
2017-02-28T11:45:29.053Z,982.64
2017-02-28T11:46:30.283Z,982.69
2017-02-28T11:47:31.517Z,982.67
2017-02-28T11:48:32.759Z,982.7
2017-02-28T11:49:33.995Z,982.63
2017-02-28T11:50:35.255Z,982.65
2017-02-28T11:51:36.521Z,982.6
2017-02-28T11:52:37.755Z,982.52
2017-02-28T11:53:39.084Z,982.46
2017-02-28T11:54:40.482Z,982.46
2017-02-28T11:55:41.712Z,982.53
2017-02-28T11:56:42.922Z,982.53
2017-02-28T11:57:44.192Z,982.52
2017-02-28T11:58:45.415Z,982.46
2017-02-28T11:59:46.706Z,982.51
2017-02-28T12:00:47.941Z,982.44
2017-02-28T12:01:49.180Z,982.46
2017-02-28T12:02:50.415Z,982.46
2017-02-28T12:03:51.664Z,982.37
2017-02-28T12:04:52.959Z,982.43
2017-02-28T12:05:54.215Z,982.42
2017-02-28T12:06:55.455Z,982.39
2017-02-28T12:07:56.770Z,982.41
2017-02-28T12:08:58.011Z,982.35
2017-02-28T12:09:59.254Z,982.37
2017-02-28T12:11:00.503Z,982.3
2017-02-28T12:12:01.768Z,982.29
2017-02-28T12:13:03.103Z,982.37
2017-02-28T12:14:04.471Z,982.32
2017-02-28T12:15:05.725Z,982.27
2017-02-28T12:16:06.958Z,982.24
2017-02-28T12:17:08.229Z,982.27
2017-02-28T12:18:09.549Z,982.23
2017-02-28T12:19:10.792Z,982.24
2017-02-28T12:20:12.044Z,982.28
2017-02-28T12:21:13.358Z,982.17
2017-02-28T12:22:14.584Z,982.27
2017-02-28T12:23:15.852Z,982.24
2017-02-28T12:24:17.173Z,982.17
2017-02-28T12:25:18.542Z,982.23
2017-02-28T12:26:19.776Z,982.21
2017-02-28T12:27:21.018Z,982.18
2017-02-28T12:28:22.256Z,982.14
2017-02-28T12:29:23.494Z,982.12
2017-02-28T12:30:24.813Z,982.17
2017-02-28T12:31:26.045Z,982.03
2017-02-28T12:32:27.296Z,982.1
2017-02-28T12:33:28.532Z,982.08
2017-02-28T12:34:29.799Z,982.16
2017-02-28T12:35:31.151Z,982.08
2017-02-28T12:36:32.396Z,982.06
2017-02-28T12:37:33.633Z,982.09
2017-02-28T12:38:34.917Z,982.04
2017-02-28T12:39:36.141Z,981.91
2017-02-28T12:40:37.393Z,982.06
2017-02-28T12:41:38.676Z,982.02
2017-02-28T12:42:39.918Z,982.01
2017-02-28T12:43:41.308Z,982
2017-02-28T12:44:42.543Z,981.99
2017-02-28T12:45:43.800Z,981.97
2017-02-28T12:46:45.037Z,982.07